createdAt,value
2024-04-24T00:01:49.216Z,-0.19
2024-04-24T00:04:17.180Z,-0.14
2024-04-24T00:06:44.304Z,-0.16
2024-04-24T00:09:31.188Z,-0.09
2024-04-24T00:11:58.800Z,-0.11
2024-04-24T00:14:28.935Z,-0.17
2024-04-24T00:16:56.267Z,-0.25
2024-04-24T00:19:24.143Z,-0.30
2024-04-24T00:21:51.049Z,-0.35
2024-04-24T00:24:36.592Z,-0.37
2024-04-24T00:27:03.972Z,-0.37
2024-04-24T00:29:31.514Z,-0.39
2024-04-24T00:32:06.039Z,-0.39
2024-04-24T00:34:33.831Z,-0.42
2024-04-24T00:37:00.884Z,-0.32
2024-04-24T00:39:27.721Z,-0.31
2024-04-24T00:41:55.368Z,-0.37
2024-04-24T00:44:22.359Z,-0.36
2024-04-24T00:46:51.337Z,-0.41
2024-04-24T00:49:20.887Z,-0.36
2024-04-24T00:51:49.246Z,-0.41
2024-04-24T00:54:16.350Z,-0.44
2024-04-24T00:56:44.566Z,-0.42
2024-04-24T00:59:12.058Z,-0.50
2024-04-24T01:01:39.547Z,-0.60
2024-04-24T01:04:06.667Z,-0.60
2024-04-24T01:06:36.352Z,-0.61
2024-04-24T01:09:03.194Z,-0.63
2024-04-24T01:11:33.046Z,-0.64
2024-04-24T01:13:59.964Z,-0.64
2024-04-24T01:16:38.728Z,-0.62
2024-04-24T01:19:14.353Z,-0.64
2024-04-24T01:21:58.684Z,-0.66
2024-04-24T01:24:33.468Z,-0.67
2024-04-24T01:27:01.006Z,-0.72
2024-04-24T01:29:28.069Z,-0.71
2024-04-24T01:31:55.607Z,-0.63
2024-04-24T01:34:22.698Z,-0.58
2024-04-24T01:36:49.778Z,-0.63
2024-04-24T01:39:17.589Z,-0.71
2024-04-24T01:41:46.259Z,-0.71
2024-04-24T01:44:13.329Z,-0.73
2024-04-24T01:46:40.183Z,-0.82
2024-04-24T01:49:08.026Z,-0.81
2024-04-24T01:51:35.012Z,-0.84
2024-04-24T01:54:02.520Z,-0.85
2024-04-24T01:56:29.449Z,-0.83
2024-04-24T01:58:56.395Z,-0.80
2024-04-24T02:01:26.129Z,-0.89
2024-04-24T02:03:53.114Z,-1.01
2024-04-24T02:06:21.241Z,-1.06
2024-04-24T02:08:48.453Z,-1.07
2024-04-24T02:11:19.743Z,-1.10
2024-04-24T02:13:47.464Z,-1.11
2024-04-24T02:16:15.040Z,-1.01
2024-04-24T02:18:43.177Z,-1.01
2024-04-24T02:21:11.181Z,-0.97
2024-04-24T02:23:40.085Z,-0.95
2024-04-24T02:26:11.575Z,-0.93
2024-04-24T02:28:39.075Z,-0.99
2024-04-24T02:31:07.810Z,-0.96
2024-04-24T02:33:34.996Z,-1.00
2024-04-24T02:36:02.357Z,-1.00
2024-04-24T02:38:29.363Z,-0.99
2024-04-24T02:40:56.744Z,-0.99
2024-04-24T02:43:25.091Z,-0.98
2024-04-24T02:45:52.991Z,-0.97
2024-04-24T02:48:20.613Z,-0.98
2024-04-24T02:50:48.115Z,-1.00
2024-04-24T02:53:15.833Z,-0.97
2024-04-24T02:55:42.738Z,-0.97
2024-04-24T02:58:10.378Z,-1.03
2024-04-24T03:00:37.835Z,-1.01
2024-04-24T03:03:05.086Z,-1.00
2024-04-24T03:05:34.179Z,-1.01
2024-04-24T03:08:03.596Z,-1.07
2024-04-24T03:10:30.738Z,-1.03
2024-04-24T03:12:58.148Z,-1.04
2024-04-24T03:15:28.182Z,-1.01
2024-04-24T03:17:55.854Z,-1.04
2024-04-24T03:20:23.481Z,-1.04
2024-04-24T03:22:52.900Z,-0.95
2024-04-24T03:25:19.877Z,-1.05
2024-04-24T03:27:47.039Z,-1.10
2024-04-24T03:30:13.974Z,-1.07
2024-04-24T03:32:40.968Z,-1.07
2024-04-24T03:35:09.400Z,-1.10
2024-04-24T03:37:37.680Z,-1.12
2024-04-24T03:40:08.941Z,-1.14
2024-04-24T03:42:38.000Z,-1.08
2024-04-24T03:45:05.377Z,-1.07
2024-04-24T03:47:32.721Z,-1.12
2024-04-24T03:49:59.730Z,-1.12
2024-04-24T03:52:29.793Z,-1.10
2024-04-24T03:54:56.634Z,-1.11
2024-04-24T03:57:25.392Z,-1.13
2024-04-24T03:59:52.288Z,-1.17
2024-04-24T04:02:19.438Z,-1.16
2024-04-24T04:04:46.597Z,-1.22
2024-04-24T04:07:13.676Z,-1.25
2024-04-24T04:09:41.211Z,-1.17
2024-04-24T04:12:12.453Z,-1.12
2024-04-24T04:14:40.124Z,-1.10
2024-04-24T04:17:07.277Z,-1.13
2024-04-24T04:19:34.746Z,-1.20
2024-04-24T04:22:02.269Z,-1.18
2024-04-24T04:24:33.631Z,-1.21
2024-04-24T04:27:00.944Z,-1.19
2024-04-24T04:29:27.796Z,-1.17
2024-04-24T04:31:54.925Z,-1.18
2024-04-24T04:34:22.139Z,-1.25
2024-04-24T04:36:49.026Z,-1.23
2024-04-24T04:39:16.721Z,-1.31
2024-04-24T04:41:43.673Z,-1.29
2024-04-24T04:44:12.637Z,-1.28
2024-04-24T04:46:39.458Z,-1.23
2024-04-24T04:49:07.208Z,-1.31
2024-04-24T04:51:34.822Z,-1.37
2024-04-24T04:54:01.822Z,-1.42
2024-04-24T04:56:29.784Z,-1.34
2024-04-24T04:58:57.357Z,-1.33
2024-04-24T05:01:25.013Z,-1.35
2024-04-24T05:03:52.071Z,-1.33
2024-04-24T05:06:19.317Z,-1.30
2024-04-24T05:08:47.364Z,-1.22
2024-04-24T05:11:15.235Z,-1.16
2024-04-24T05:13:42.256Z,-1.14
2024-04-24T05:16:13.572Z,-1.12
2024-04-24T05:18:41.286Z,-1.09
2024-04-24T05:21:09.719Z,-1.12
2024-04-24T05:23:38.557Z,-1.19
2024-04-24T05:26:26.230Z,-1.16
2024-04-24T05:29:05.240Z,-1.04
2024-04-24T05:31:32.635Z,-1.05
2024-04-24T05:34:00.025Z,-1.07
2024-04-24T05:36:27.912Z,-0.99
2024-04-24T05:38:56.270Z,-1.07
2024-04-24T05:41:23.582Z,-1.07
2024-04-24T05:43:51.919Z,-1.08
2024-04-24T05:46:19.120Z,-1.19
2024-04-24T05:48:49.220Z,-1.15
2024-04-24T05:51:19.344Z,-1.08
2024-04-24T05:53:46.364Z,-1.07
2024-04-24T05:56:13.874Z,-1.02
2024-04-24T05:58:48.230Z,-1.01
2024-04-24T06:01:15.809Z,-0.91
2024-04-24T06:03:43.038Z,-0.87
2024-04-24T06:06:10.027Z,-0.95
2024-04-24T06:08:37.187Z,-0.95
2024-04-24T06:11:05.138Z,-0.94
2024-04-24T06:13:32.320Z,-0.88
2024-04-24T06:15:59.598Z,-0.90
2024-04-24T06:18:26.984Z,-0.87
2024-04-24T06:20:54.272Z,-0.83
2024-04-24T06:23:21.347Z,-0.85
2024-04-24T06:25:48.767Z,-0.74
2024-04-24T06:28:19.719Z,-0.73
2024-04-24T06:30:46.950Z,-0.69
2024-04-24T06:33:14.454Z,-0.66
2024-04-24T06:35:42.040Z,-0.62
2024-04-24T06:38:09.389Z,-0.73
2024-04-24T06:40:36.654Z,-0.77
2024-04-24T06:43:03.823Z,-0.79
2024-04-24T06:45:30.657Z,-0.69
2024-04-24T06:47:57.572Z,-0.67
2024-04-24T06:50:24.332Z,-0.54
2024-04-24T06:52:52.614Z,-0.56
2024-04-24T06:55:22.244Z,-0.47
2024-04-24T06:57:49.594Z,-0.43
2024-04-24T07:00:16.681Z,-0.49
2024-04-24T07:02:43.485Z,-0.46
2024-04-24T07:05:10.357Z,-0.41
2024-04-24T07:07:37.162Z,-0.57
2024-04-24T07:10:04.305Z,-0.72
2024-04-24T07:12:31.041Z,-0.80
2024-04-24T07:14:57.822Z,-0.77
2024-04-24T07:17:24.687Z,-0.62
2024-04-24T07:19:51.586Z,-0.57
2024-04-24T07:22:18.398Z,-0.63
2024-04-24T07:24:45.752Z,-0.74
2024-04-24T07:27:14.567Z,-0.82
2024-04-24T07:29:42.723Z,-0.78
2024-04-24T07:32:09.498Z,-0.74
2024-04-24T07:34:39.548Z,-0.62
2024-04-24T07:37:11.296Z,-0.60
2024-04-24T07:39:38.610Z,-0.52
2024-04-24T07:42:05.614Z,-0.49
2024-04-24T07:44:32.472Z,-0.46
2024-04-24T07:47:02.536Z,-0.48
2024-04-24T07:49:30.943Z,-0.58
2024-04-24T07:51:57.703Z,-0.64
2024-04-24T07:54:24.619Z,-0.61
2024-04-24T07:56:51.548Z,-0.71
2024-04-24T07:59:19.460Z,-0.72
2024-04-24T08:01:46.842Z,-0.67
2024-04-24T08:04:14.473Z,-0.49
2024-04-24T08:06:41.513Z,-0.32
2024-04-24T08:09:10.919Z,-0.31
2024-04-24T08:11:37.732Z,-0.19
2024-04-24T08:14:04.680Z,-0.25
2024-04-24T08:16:31.576Z,-0.33
2024-04-24T08:18:58.789Z,-0.30
2024-04-24T08:21:25.661Z,-0.15
2024-04-24T08:23:52.423Z,-0.30
2024-04-24T08:26:19.196Z,-0.39
2024-04-24T08:28:53.023Z,-0.45
2024-04-24T08:31:20.739Z,-0.55
2024-04-24T08:33:47.962Z,-0.53
2024-04-24T08:36:17.104Z,-0.52
2024-04-24T08:38:44.563Z,-0.58
2024-04-24T08:41:13.478Z,-0.62
2024-04-24T08:43:42.834Z,-0.51
2024-04-24T08:46:12.929Z,-0.50
2024-04-24T08:48:43.405Z,-0.55
2024-04-24T08:51:14.213Z,-0.65
2024-04-24T08:54:09.458Z,-0.57
2024-04-24T08:56:41.087Z,-0.49
2024-04-24T08:59:20.147Z,-0.39
2024-04-24T09:01:55.952Z,-0.38
2024-04-24T09:04:25.956Z,-0.38
2024-04-24T09:06:53.087Z,-0.36
2024-04-24T09:09:22.620Z,-0.43
2024-04-24T09:11:53.130Z,-0.41
2024-04-24T09:14:21.825Z,-0.28
2024-04-24T09:16:52.107Z,-0.11
2024-04-24T09:19:22.804Z,0.03
2024-04-24T09:21:50.835Z,0.14
2024-04-24T09:24:21.079Z,0.16
2024-04-24T09:26:55.973Z,0.44
2024-04-24T09:29:23.920Z,0.47
2024-04-24T09:31:51.798Z,0.66
2024-04-24T09:34:19.404Z,1.05
2024-04-24T09:36:48.422Z,1.10
2024-04-24T09:39:19.790Z,1.15
2024-04-24T09:41:51.144Z,1.21
2024-04-24T09:44:20.735Z,1.02
2024-04-24T09:46:55.416Z,0.82
2024-04-24T09:49:22.982Z,0.68
2024-04-24T09:51:52.845Z,0.58
2024-04-24T09:54:22.859Z,0.73
2024-04-24T09:56:55.599Z,0.91
2024-04-24T09:59:29.716Z,0.77
2024-04-24T10:02:07.140Z,0.73
2024-04-24T10:04:36.355Z,0.76
2024-04-24T10:07:06.400Z,0.84
2024-04-24T10:09:36.638Z,0.75
2024-04-24T10:12:09.566Z,0.67
2024-04-24T10:14:52.418Z,0.56
2024-04-24T10:17:20.691Z,0.29
2024-04-24T10:19:49.995Z,0.26
2024-04-24T10:22:18.728Z,0.32
2024-04-24T10:24:49.602Z,0.40
2024-04-24T10:27:18.903Z,0.73
2024-04-24T10:29:46.945Z,0.81
2024-04-24T10:32:16.655Z,1.09
2024-04-24T10:34:44.190Z,1.17
2024-04-24T10:37:12.511Z,1.50
2024-04-24T10:39:47.368Z,1.59
2024-04-24T10:42:15.137Z,1.94
2024-04-24T10:44:45.543Z,2.06
2024-04-24T10:47:14.531Z,2.31
2024-04-24T10:49:54.404Z,2.41
2024-04-24T10:52:22.235Z,2.44
2024-04-24T10:54:50.882Z,2.47
2024-04-24T10:57:20.891Z,2.14
2024-04-24T10:59:47.922Z,1.83
2024-04-24T11:02:19.063Z,1.90
2024-04-24T11:04:48.425Z,2.21
2024-04-24T11:07:25.125Z,2.10
2024-04-24T11:10:01.597Z,2.33
2024-04-24T11:12:29.666Z,2.22
2024-04-24T11:15:00.277Z,2.16
2024-04-24T11:17:29.646Z,2.46
2024-04-24T11:19:56.948Z,2.22
2024-04-24T11:22:31.357Z,2.38
2024-04-24T11:25:08.383Z,2.56
2024-04-24T11:27:35.573Z,2.73
2024-04-24T11:30:11.825Z,2.92
2024-04-24T11:32:44.832Z,2.91
2024-04-24T11:35:12.793Z,2.64
2024-04-24T11:37:40.268Z,2.48
2024-04-24T11:40:07.773Z,2.35
2024-04-24T11:42:34.945Z,2.16
2024-04-24T11:45:04.078Z,2.08
2024-04-24T11:47:32.296Z,1.82
2024-04-24T11:49:59.564Z,1.66
2024-04-24T11:52:26.591Z,1.30
2024-04-24T11:54:57.471Z,1.16
2024-04-24T11:57:45.615Z,1.01
2024-04-24T12:00:15.820Z,1.22
2024-04-24T12:02:42.830Z,1.27
2024-04-24T12:05:09.901Z,1.49
2024-04-24T12:07:43.548Z,1.93
2024-04-24T12:10:11.681Z,2.28
2024-04-24T12:12:38.954Z,2.47
2024-04-24T12:15:06.383Z,2.64
2024-04-24T12:17:33.787Z,2.91
2024-04-24T12:20:00.946Z,3.21
2024-04-24T12:22:28.269Z,3.24
2024-04-24T12:24:55.704Z,3.48
2024-04-24T12:27:22.835Z,3.46
2024-04-24T12:29:50.234Z,3.51
2024-04-24T12:32:17.345Z,3.68
2024-04-24T12:34:44.803Z,3.35
2024-04-24T12:37:12.118Z,2.80
2024-04-24T12:39:39.022Z,2.47
2024-04-24T12:42:05.977Z,2.24
2024-04-24T12:44:34.454Z,2.22
2024-04-24T12:47:01.467Z,2.18
2024-04-24T12:49:29.932Z,2.23
2024-04-24T12:51:56.824Z,2.38
2024-04-24T12:54:23.599Z,2.50
2024-04-24T12:56:50.779Z,2.80
2024-04-24T12:59:17.884Z,3.19
2024-04-24T13:01:44.821Z,2.96
2024-04-24T13:04:11.902Z,3.18
2024-04-24T13:06:40.587Z,3.47
2024-04-24T13:09:09.363Z,3.30
2024-04-24T13:11:36.902Z,3.33
2024-04-24T13:14:04.192Z,3.33
2024-04-24T13:16:31.449Z,3.06
2024-04-24T13:18:59.269Z,2.61
2024-04-24T13:21:26.473Z,1.62
2024-04-24T13:23:55.552Z,1.14
2024-04-24T13:26:23.046Z,0.95
2024-04-24T13:28:50.173Z,0.91
2024-04-24T13:31:17.231Z,0.81
2024-04-24T13:33:44.121Z,0.86
2024-04-24T13:36:11.024Z,0.70
2024-04-24T13:38:38.131Z,0.64
2024-04-24T13:41:05.237Z,0.66
2024-04-24T13:43:32.166Z,0.76
2024-04-24T13:45:58.899Z,0.94
2024-04-24T13:48:28.821Z,0.90
2024-04-24T13:50:57.271Z,0.93
2024-04-24T13:53:23.964Z,1.05
2024-04-24T13:55:51.105Z,1.39
2024-04-24T13:58:17.908Z,1.50
2024-04-24T14:00:44.970Z,1.55
2024-04-24T14:03:12.433Z,2.07
2024-04-24T14:05:41.003Z,2.05
2024-04-24T14:08:08.727Z,2.15
2024-04-24T14:10:35.598Z,2.35
2024-04-24T14:13:02.911Z,2.40
2024-04-24T14:15:29.806Z,2.60
2024-04-24T14:17:57.151Z,2.70
2024-04-24T14:20:24.357Z,2.90
2024-04-24T14:22:51.696Z,2.98
2024-04-24T14:25:19.208Z,2.87
2024-04-24T14:27:50.254Z,2.42
2024-04-24T14:30:17.470Z,2.13
2024-04-24T14:32:44.838Z,2.18
2024-04-24T14:35:13.524Z,2.20
2024-04-24T14:37:41.705Z,2.13
2024-04-24T14:40:09.077Z,2.03
2024-04-24T14:42:37.201Z,1.86
2024-04-24T14:45:04.812Z,1.81
2024-04-24T14:47:31.856Z,1.75
2024-04-24T14:49:59.258Z,0.91
2024-04-24T14:52:26.511Z,0.33
2024-04-24T14:54:53.366Z,0.40
2024-04-24T14:57:20.379Z,0.48
2024-04-24T14:59:47.263Z,0.54
2024-04-24T15:03:30.691Z,0.62
2024-04-24T15:07:16.761Z,0.57
2024-04-24T15:09:43.603Z,0.70
2024-04-24T15:12:10.789Z,0.93
2024-04-24T15:14:40.941Z,0.96
2024-04-24T15:17:08.557Z,0.96
2024-04-24T15:19:45.029Z,0.84
2024-04-24T15:22:12.024Z,0.61
2024-04-24T15:24:38.950Z,0.31
2024-04-24T15:27:11.107Z,0.14
2024-04-24T15:29:38.699Z,0.06
2024-04-24T15:32:05.870Z,0.03
2024-04-24T15:34:35.252Z,0.10
2024-04-24T15:37:04.714Z,0.17
2024-04-24T15:39:33.178Z,0.28
2024-04-24T15:42:20.320Z,0.31
2024-04-24T15:45:51.478Z,0.70
2024-04-24T15:48:19.126Z,1.09
2024-04-24T15:50:46.348Z,1.42
2024-04-24T15:53:14.314Z,1.37
2024-04-24T15:55:41.693Z,1.27
2024-04-24T15:58:09.072Z,1.16
2024-04-24T16:00:36.270Z,1.00
2024-04-24T16:03:03.494Z,0.87
2024-04-24T16:05:30.358Z,0.89
2024-04-24T16:07:57.515Z,1.03
2024-04-24T16:10:24.819Z,1.09
2024-04-24T16:12:51.997Z,1.09
2024-04-24T16:15:19.246Z,0.93
2024-04-24T16:17:46.291Z,0.83
2024-04-24T16:20:14.860Z,0.78
2024-04-24T16:22:41.883Z,0.60
2024-04-24T16:25:08.753Z,0.34
2024-04-24T16:27:38.275Z,0.38
2024-04-24T16:30:12.416Z,0.22
2024-04-24T16:32:40.259Z,0.05
2024-04-24T16:35:07.420Z,0.21
2024-04-24T16:37:36.106Z,0.66
2024-04-24T16:40:03.830Z,1.06
2024-04-24T16:42:30.733Z,1.37
2024-04-24T16:44:58.252Z,1.52
2024-04-24T16:47:25.575Z,1.26
2024-04-24T16:49:53.584Z,1.01
2024-04-24T16:52:21.344Z,0.89
2024-04-24T16:54:48.342Z,0.84
2024-04-24T16:57:16.031Z,0.79
2024-04-24T16:59:46.566Z,0.83
2024-04-24T17:02:13.864Z,0.71
2024-04-24T17:04:41.329Z,0.38
2024-04-24T17:07:12.406Z,-1.08
2024-04-24T17:09:40.231Z,-2.20
2024-04-24T17:12:13.101Z,-2.38
2024-04-24T17:14:40.676Z,-2.33
2024-04-24T17:17:11.385Z,-2.28
2024-04-24T17:19:42.615Z,-1.46
2024-04-24T17:22:10.093Z,-1.38
2024-04-24T17:24:37.216Z,-1.49
2024-04-24T17:27:04.737Z,-1.53
2024-04-24T17:29:35.368Z,-1.59
2024-04-24T17:32:03.362Z,-1.57
2024-04-24T17:34:30.493Z,-1.55
2024-04-24T17:36:57.725Z,-1.53
2024-04-24T17:39:24.820Z,-1.52
2024-04-24T17:41:53.420Z,-1.50
2024-04-24T17:44:20.625Z,-1.47
2024-04-24T17:50:11.810Z,-1.34
2024-04-24T17:52:39.027Z,-1.30
2024-04-24T17:55:06.487Z,-1.24
2024-04-24T17:57:35.769Z,-1.20
2024-04-24T18:00:04.255Z,-1.12
2024-04-24T18:02:31.550Z,-1.07
2024-04-24T18:05:01.619Z,-0.89
2024-04-24T18:07:32.076Z,-0.88
2024-04-24T18:09:58.940Z,-0.87
2024-04-24T18:12:28.668Z,-0.98
2024-04-24T18:14:55.682Z,-1.08
2024-04-24T18:17:22.563Z,-1.13
2024-04-24T18:19:49.538Z,-1.17
2024-04-24T18:22:16.850Z,-1.21
2024-04-24T18:24:43.925Z,-1.22
2024-04-24T18:27:10.704Z,-1.24
2024-04-24T18:29:37.645Z,-1.30
2024-04-24T18:32:04.925Z,-1.31
2024-04-24T18:34:33.027Z,-1.30
2024-04-24T18:36:59.863Z,-1.29
2024-04-24T18:39:26.739Z,-1.31
2024-04-24T18:41:53.733Z,-1.28
2024-04-24T18:44:20.539Z,-1.23
2024-04-24T18:46:49.228Z,-1.20
2024-04-24T18:49:16.432Z,-1.18
2024-04-24T18:51:44.082Z,-1.14
2024-04-24T18:54:16.116Z,-1.14
2024-04-24T18:56:43.710Z,-1.18
2024-04-24T18:59:10.970Z,-1.09
2024-04-24T19:01:38.194Z,-1.17
2024-04-24T19:04:13.843Z,-1.22
2024-04-24T19:06:41.445Z,-1.19
2024-04-24T19:09:10.702Z,-1.18
2024-04-24T19:11:38.221Z,-1.12
2024-04-24T19:14:05.374Z,-1.07
2024-04-24T19:16:32.431Z,-1.04
2024-04-24T19:18:59.198Z,-0.98
2024-04-24T19:21:26.205Z,-0.95
2024-04-24T19:23:56.980Z,-0.97
2024-04-24T19:26:24.213Z,-0.85
2024-04-24T19:28:51.279Z,-0.80
2024-04-24T19:31:23.917Z,-0.90
2024-04-24T19:33:58.521Z,-0.91
2024-04-24T19:36:27.241Z,-0.91
2024-04-24T19:38:55.447Z,-0.95
2024-04-24T19:41:22.628Z,-0.97
2024-04-24T19:43:49.464Z,-0.97
2024-04-24T19:46:16.840Z,-0.98
2024-04-24T19:48:44.827Z,-1.08
2024-04-24T19:51:17.759Z,-1.07
2024-04-24T19:53:44.814Z,-1.09
2024-04-24T19:56:11.841Z,-1.09
2024-04-24T19:58:38.654Z,-1.13
2024-04-24T20:01:09.966Z,-1.14
2024-04-24T20:03:40.468Z,-1.17
2024-04-24T20:06:08.751Z,-1.22
2024-04-24T20:08:36.444Z,-1.19
2024-04-24T20:11:08.112Z,-1.17
2024-04-24T20:13:35.586Z,-1.23
2024-04-24T20:16:03.862Z,-1.17
2024-04-24T20:18:31.039Z,-1.18
2024-04-24T20:20:58.593Z,-1.16
2024-04-24T20:23:25.755Z,-1.18
2024-04-24T20:25:52.849Z,-1.17
2024-04-24T20:28:19.648Z,-1.19
2024-04-24T20:30:46.628Z,-1.12
2024-04-24T20:33:13.709Z,-1.09
2024-04-24T20:35:41.173Z,-1.15
2024-04-24T20:38:08.228Z,-1.10
2024-04-24T20:40:35.322Z,-1.13
2024-04-24T20:43:02.420Z,-1.12
2024-04-24T20:45:29.191Z,-1.08
2024-04-24T20:47:56.101Z,-1.10
2024-04-24T20:50:23.158Z,-1.09
2024-04-24T20:52:50.682Z,-1.10
2024-04-24T20:55:17.751Z,-1.13
2024-04-24T20:57:44.722Z,-1.19
2024-04-24T21:00:12.883Z,-1.17
2024-04-24T21:02:40.029Z,-1.18
2024-04-24T21:05:08.088Z,-1.20
2024-04-24T21:07:35.769Z,-1.18
2024-04-24T21:10:03.100Z,-1.21
2024-04-24T21:12:31.387Z,-1.21
2024-04-24T21:14:58.551Z,-1.21
2024-04-24T21:17:25.582Z,-1.21
2024-04-24T21:19:52.496Z,-1.15
2024-04-24T21:22:19.539Z,-1.24
2024-04-24T21:24:46.369Z,-1.20
2024-04-24T21:27:15.821Z,-1.17
2024-04-24T21:29:42.951Z,-1.19
2024-04-24T21:32:10.104Z,-1.16
2024-04-24T21:34:37.298Z,-1.18
2024-04-24T21:37:05.694Z,-1.22
2024-04-24T21:39:32.610Z,-1.24
2024-04-24T21:42:01.748Z,-1.31
2024-04-24T21:44:28.960Z,-1.33
2024-04-24T21:46:55.823Z,-1.34
2024-04-24T21:49:25.952Z,-1.35
2024-04-24T21:51:52.935Z,-1.32
2024-04-24T21:54:20.492Z,-1.35
2024-04-24T21:56:47.319Z,-1.38
2024-04-24T21:59:14.211Z,-1.38
2024-04-24T22:01:41.326Z,-1.39
2024-04-24T22:04:08.983Z,-1.41
2024-04-24T22:06:38.705Z,-1.39
2024-04-24T22:09:05.989Z,-1.43
2024-04-24T22:11:33.217Z,-1.45
2024-04-24T22:14:00.087Z,-1.46
2024-04-24T22:16:27.534Z,-1.49
2024-04-24T22:18:54.585Z,-1.52
2024-04-24T22:21:23.858Z,-1.54
2024-04-24T22:23:51.159Z,-1.54
2024-04-24T22:26:18.130Z,-1.54
2024-04-24T22:28:45.035Z,-1.60
2024-04-24T22:31:14.337Z,-1.57
2024-04-24T22:33:45.127Z,-1.61
2024-04-24T22:36:12.127Z,-1.60
2024-04-24T22:38:39.763Z,-1.60
2024-04-24T22:41:07.602Z,-1.60
2024-04-24T22:43:35.150Z,-1.67
2024-04-24T22:46:03.882Z,-1.67
2024-04-24T22:48:30.795Z,-1.69
2024-04-24T22:50:57.541Z,-1.72
2024-04-24T22:53:24.366Z,-1.74
2024-04-24T22:55:54.386Z,-1.78
2024-04-24T22:58:22.629Z,-1.78
2024-04-24T23:00:52.682Z,-1.78
2024-04-24T23:03:19.526Z,-1.83
2024-04-24T23:05:46.829Z,-1.89
2024-04-24T23:08:15.467Z,-1.88
2024-04-24T23:10:42.315Z,-1.88
2024-04-24T23:13:09.925Z,-1.88
2024-04-24T23:15:36.986Z,-1.85
2024-04-24T23:18:05.426Z,-1.84
2024-04-24T23:20:35.845Z,-1.84
2024-04-24T23:23:04.271Z,-1.89
2024-04-24T23:25:31.532Z,-1.88
2024-04-24T23:27:59.009Z,-2.00
2024-04-24T23:30:27.807Z,-1.91
2024-04-24T23:32:55.885Z,-1.97
2024-04-24T23:35:23.671Z,-1.97
2024-04-24T23:37:50.790Z,-1.93
2024-04-24T23:40:18.542Z,-2.00
2024-04-24T23:42:45.423Z,-2.00
2024-04-24T23:45:17.872Z,-2.01
2024-04-24T23:47:44.964Z,-2.01
2024-04-24T23:50:12.558Z,-2.01
2024-04-24T23:52:39.958Z,-1.99
2024-04-24T23:55:07.488Z,-2.10
2024-04-24T23:57:36.507Z,-2.08
